Ji Run — VRAD3 — position and weather

sailwx.info

Track history (hours):
 
Tides and Currents Weather Stations Pressure Air Temp Water Temp Dewpoint Dewpoint Depression Visibility Wind Speed Wind Dir Waves Ship Positions

Ji Run

Last reported at 2018-Feb-21 09:14 UTC. Time now 2018-Feb-22 04:23 UTC.
Position N 33°47' E 135°08'.

Length 134 m; draft 6.8 m.

Type: Ship (hazmat cat D). MMSI: 477400900.

Date/timePositionNaut miles runAvg speedWind from/ knotsBaromVisibWave heightAir tempDewpointWater temp
2018-Feb-21 09:14N 33°47' E 135°08'413.6
2018-Feb-21 08:57N 33°50' E 135°04'613.7
2018-Feb-21 08:30N 33°54' E 135°00'714.2
2018-Feb-21 08:00N 34°01' E 134°60'714.2
2018-Feb-21 07:30N 34°08' E 134°59'714.6
2018-Feb-21 07:00N 34°16' E 134°58'713.9
2018-Feb-21 06:31N 34°22' E 135°01'714.3
2018-Feb-21 06:01N 34°27' E 135°08'713.5
2018-Feb-21 05:30N 34°32' E 135°14'713.6
2018-Feb-21 05:00N 34°36' E 135°20'4 8.5
2018-Feb-21 04:31N 34°39' E 135°24'0 0.0
2018-Feb-21 03:55N 34°39' E 135°24'0 0.0
2018-Feb-21 03:25N 34°39' E 135°24'0 0.0
2018-Feb-21 02:58N 34°39' E 135°24'0 0.0
2018-Feb-21 02:28N 34°39' E 135°24'0 0.0
2018-Feb-21 01:58N 34°39' E 135°24'0 0.0
2018-Feb-21 01:28N 34°39' E 135°24'0 0.0
2018-Feb-21 00:58N 34°39' E 135°24'0 0.0
2018-Feb-21 00:28N 34°39' E 135°24'0 0.0
2018-Feb-20 23:58N 34°39' E 135°24'0 0.0
2018-Feb-20 23:28N 34°39' E 135°24'0 0.0
2018-Feb-20 22:58N 34°39' E 135°24'0 0.0
2018-Feb-20 22:28N 34°39' E 135°24'0 0.1
2018-Feb-20 22:00N 34°39' E 135°24'2 3.7
2018-Feb-20 21:30N 34°37' E 135°22'0 0.0
2018-Feb-20 21:00N 34°37' E 135°22'0 0.0
2018-Feb-20 20:30N 34°37' E 135°22'0 0.0
2018-Feb-20 20:00N 34°37' E 135°22'0 0.0
2018-Feb-20 19:30N 34°37' E 135°22'0 0.0
2018-Feb-20 19:00N 34°37' E 135°22'0 0.1
2018-Feb-20 18:30N 34°37' E 135°22'0 0.8
2018-Feb-20 18:00N 34°37' E 135°22'5 9.5
2018-Feb-20 17:30N 34°36' E 135°17'612.8
2018-Feb-20 17:00N 34°35' E 135°09'612.5
2018-Feb-20 16:31N 34°37' E 135°02'612.5
2018-Feb-20 16:01N 34°35' E 134°54'611.8
2018-Feb-20 15:30N 34°33' E 134°47'612.6
2018-Feb-20 15:00N 34°30' E 134°40'713.1
2018-Feb-20 14:30N 34°28' E 134°33'713.0
2018-Feb-20 14:00N 34°25' E 134°26'104 8.6
2018-Feb-20 01:57N 33°47' E 132°29'914.2
2018-Feb-20 01:17N 33°41' E 132°20'2114.5
2018-Feb-19 23:48N 33°26' E 132°01'615.0
2018-Feb-19 23:26N 33°21' E 131°57'  
2018-Feb-15 21:20N 24°16' E 118°33'412.3
2018-Feb-15 21:00N 24°16' E 118°28'612.2
2018-Feb-15 20:30N 24°18' E 118°22'714.1
2018-Feb-15 20:00N 24°20' E 118°14'713.6
2018-Feb-15 19:31N 24°23' E 118°08'713.6
2018-Feb-15 19:01N 24°28' E 118°03'3 6.4
2018-Feb-15 18:28N 24°31' E 118°05'0 0.0
2018-Feb-15 17:58N 24°31' E 118°05'0 0.0
2018-Feb-15 17:25N 24°31' E 118°05'0 0.0
2018-Feb-15 16:58N 24°31' E 118°05'0 0.0
2018-Feb-15 16:25N 24°31' E 118°05'0 0.0
2018-Feb-15 15:55N 24°31' E 118°05'0 0.0
2018-Feb-15 15:25N 24°31' E 118°05'0 0.0
2018-Feb-15 14:55N 24°31' E 118°05'0 0.0
2018-Feb-15 14:31N 24°31' E 118°05'0 0.4
2018-Feb-15 14:00N 24°31' E 118°05'510.1
2018-Feb-15 13:31N 24°26' E 118°03'714.4
2018-Feb-15 13:00N 24°22' E 118°09'713.1
2018-Feb-15 12:30N 24°19' E 118°16'713.3
2018-Feb-15 12:00N 24°16' E 118°22'713.3
2018-Feb-15 11:27N 24°13' E 118°30'4 9.5
2018-Feb-15 11:00N 24°16' E 118°26'2 4.9
2018-Feb-15 10:29N 24°18' E 118°28'711.0
2018-Feb-15 09:53N 24°21' E 118°34'1111.7
2018-Feb-15 08:55N 24°30' E 118°41'  
2018-Feb-12 18:06N 33°41' E 129°53'112.4
2018-Feb-12 18:00N 33°41' E 129°54'612.1
2018-Feb-12 17:30N 33°44' E 130°01'611.5
2018-Feb-12 17:00N 33°47' E 130°06'611.2
2018-Feb-12 16:30N 33°50' E 130°12'510.5
2018-Feb-12 16:00N 33°53' E 130°18'510.3
2018-Feb-12 15:30N 33°55' E 130°23'5 9.1
2018-Feb-12 15:00N 33°58' E 130°28'5 9.6
2018-Feb-12 14:30N 33°60' E 130°33'5 9.2
2018-Feb-12 14:00N 34°01' E 130°38'5 9.9
2018-Feb-12 13:30N 34°02' E 130°44'510.0
2018-Feb-12 13:00N 34°02' E 130°50'510.6
2018-Feb-12 12:30N 33°57' E 130°52'3 6.9
2018-Feb-12 12:00N 33°56' E 130°56'510.5
2018-Feb-12 11:30N 33°58' E 131°02'712.7
2018-Feb-12 10:59N 33°54' E 131°08'612.4
2018-Feb-12 10:30N 33°52' E 131°15'712.8
2018-Feb-12 09:59N 33°50' E 131°23'613.1
2018-Feb-12 09:30N 33°49' E 131°30'713.1
2018-Feb-12 08:59N 33°48' E 131°38'612.7
2018-Feb-12 08:30N 33°45' E 131°45'1213.7
2018-Feb-12 07:40N 33°35' E 131°51'313.6
2018-Feb-12 07:28N 33°32' E 131°52'713.4
2018-Feb-12 06:57N 33°26' E 131°55'  
Track history (hours):
 
Tides and Currents Weather Stations Pressure Air Temp Water Temp Dewpoint Dewpoint Depression Visibility Wind Speed Wind Dir Waves Ship Positions

Ji Run

Last reported at 2018-Feb-21 09:14 UTC. Time now 2018-Feb-22 04:23 UTC.
Position N 33°47' E 135°08'.

Length 134 m; draft 6.8 m.

Type: Ship (hazmat cat D). MMSI: 477400900.

Date/timePositionNaut miles runAvg speedWind from/ knotsBaromVisibWave heightAir tempDewpointWater temp
2018-Feb-21 09:14N 33°47' E 135°08'413.6
2018-Feb-21 08:57N 33°50' E 135°04'613.7
2018-Feb-21 08:30N 33°54' E 135°00'714.2
2018-Feb-21 08:00N 34°01' E 134°60'714.2
2018-Feb-21 07:30N 34°08' E 134°59'714.6
2018-Feb-21 07:00N 34°16' E 134°58'713.9
2018-Feb-21 06:31N 34°22' E 135°01'714.3
2018-Feb-21 06:01N 34°27' E 135°08'713.5
2018-Feb-21 05:30N 34°32' E 135°14'713.6
2018-Feb-21 05:00N 34°36' E 135°20'4 8.5
2018-Feb-21 04:31N 34°39' E 135°24'0 0.0
2018-Feb-21 03:55N 34°39' E 135°24'0 0.0
2018-Feb-21 03:25N 34°39' E 135°24'0 0.0
2018-Feb-21 02:58N 34°39' E 135°24'0 0.0
2018-Feb-21 02:28N 34°39' E 135°24'0 0.0
2018-Feb-21 01:58N 34°39' E 135°24'0 0.0
2018-Feb-21 01:28N 34°39' E 135°24'0 0.0
2018-Feb-21 00:58N 34°39' E 135°24'0 0.0
2018-Feb-21 00:28N 34°39' E 135°24'0 0.0
2018-Feb-20 23:58N 34°39' E 135°24'0 0.0
2018-Feb-20 23:28N 34°39' E 135°24'0 0.0
2018-Feb-20 22:58N 34°39' E 135°24'0 0.0
2018-Feb-20 22:28N 34°39' E 135°24'0 0.1
2018-Feb-20 22:00N 34°39' E 135°24'2 3.7
2018-Feb-20 21:30N 34°37' E 135°22'0 0.0
2018-Feb-20 21:00N 34°37' E 135°22'0 0.0
2018-Feb-20 20:30N 34°37' E 135°22'0 0.0
2018-Feb-20 20:00N 34°37' E 135°22'0 0.0
2018-Feb-20 19:30N 34°37' E 135°22'0 0.0
2018-Feb-20 19:00N 34°37' E 135°22'0 0.1
2018-Feb-20 18:30N 34°37' E 135°22'0 0.8
2018-Feb-20 18:00N 34°37' E 135°22'5 9.5
2018-Feb-20 17:30N 34°36' E 135°17'612.8
2018-Feb-20 17:00N 34°35' E 135°09'612.5
2018-Feb-20 16:31N 34°37' E 135°02'612.5
2018-Feb-20 16:01N 34°35' E 134°54'611.8
2018-Feb-20 15:30N 34°33' E 134°47'612.6
2018-Feb-20 15:00N 34°30' E 134°40'713.1
2018-Feb-20 14:30N 34°28' E 134°33'713.0
2018-Feb-20 14:00N 34°25' E 134°26'104 8.6
2018-Feb-20 01:57N 33°47' E 132°29'914.2
2018-Feb-20 01:17N 33°41' E 132°20'2114.5
2018-Feb-19 23:48N 33°26' E 132°01'615.0
2018-Feb-19 23:26N 33°21' E 131°57'  
2018-Feb-15 21:20N 24°16' E 118°33'412.3
2018-Feb-15 21:00N 24°16' E 118°28'612.2
2018-Feb-15 20:30N 24°18' E 118°22'714.1
2018-Feb-15 20:00N 24°20' E 118°14'713.6
2018-Feb-15 19:31N 24°23' E 118°08'713.6
2018-Feb-15 19:01N 24°28' E 118°03'3 6.4
2018-Feb-15 18:28N 24°31' E 118°05'0 0.0
2018-Feb-15 17:58N 24°31' E 118°05'0 0.0
2018-Feb-15 17:25N 24°31' E 118°05'0 0.0
2018-Feb-15 16:58N 24°31' E 118°05'0 0.0
2018-Feb-15 16:25N 24°31' E 118°05'0 0.0
2018-Feb-15 15:55N 24°31' E 118°05'0 0.0
2018-Feb-15 15:25N 24°31' E 118°05'0 0.0
2018-Feb-15 14:55N 24°31' E 118°05'0 0.0
2018-Feb-15 14:31N 24°31' E 118°05'0 0.4
2018-Feb-15 14:00N 24°31' E 118°05'510.1
2018-Feb-15 13:31N 24°26' E 118°03'714.4
2018-Feb-15 13:00N 24°22' E 118°09'713.1
2018-Feb-15 12:30N 24°19' E 118°16'713.3
2018-Feb-15 12:00N 24°16' E 118°22'713.3
2018-Feb-15 11:27N 24°13' E 118°30'4 9.5
2018-Feb-15 11:00N 24°16' E 118°26'2 4.9
2018-Feb-15 10:29N 24°18' E 118°28'711.0
2018-Feb-15 09:53N 24°21' E 118°34'1111.7
2018-Feb-15 08:55N 24°30' E 118°41'  
2018-Feb-12 18:06N 33°41' E 129°53'112.4
2018-Feb-12 18:00N 33°41' E 129°54'612.1
2018-Feb-12 17:30N 33°44' E 130°01'611.5
2018-Feb-12 17:00N 33°47' E 130°06'611.2
2018-Feb-12 16:30N 33°50' E 130°12'510.5
2018-Feb-12 16:00N 33°53' E 130°18'510.3
2018-Feb-12 15:30N 33°55' E 130°23'5 9.1
2018-Feb-12 15:00N 33°58' E 130°28'5 9.6
2018-Feb-12 14:30N 33°60' E 130°33'5 9.2
2018-Feb-12 14:00N 34°01' E 130°38'5 9.9
2018-Feb-12 13:30N 34°02' E 130°44'510.0
2018-Feb-12 13:00N 34°02' E 130°50'510.6
2018-Feb-12 12:30N 33°57' E 130°52'3 6.9
2018-Feb-12 12:00N 33°56' E 130°56'510.5
2018-Feb-12 11:30N 33°58' E 131°02'712.7
2018-Feb-12 10:59N 33°54' E 131°08'612.4
2018-Feb-12 10:30N 33°52' E 131°15'712.8
2018-Feb-12 09:59N 33°50' E 131°23'613.1
2018-Feb-12 09:30N 33°49' E 131°30'713.1
2018-Feb-12 08:59N 33°48' E 131°38'612.7
2018-Feb-12 08:30N 33°45' E 131°45'1213.7
2018-Feb-12 07:40N 33°35' E 131°51'313.6
2018-Feb-12 07:28N 33°32' E 131°52'713.4
2018-Feb-12 06:57N 33°26' E 131°55'  

Dump ship's entire track history